Time;durP1;ratioP1;P1;durP2;ratioP2;P2;SDS_P1;SDS_P2;PMS_P1;PMS_P2;Temp;Humidity;BMP_temperature;BMP_pressure;BME280_temperature;BME280_humidity;BME280_pressure;Samples;Min_cycle;Max_cycle;Signal;HPM_P1;HPM_P2
2021/03/26 00:00:18;;;;;;;26.60;17.25;;;5.60;99.90;;;;;;5035416;28;20029;-74
2021/03/26 00:02:44;;;;;;;29.05;17.05;;;5.60;99.90;;;;;;5014871;28;20052;-74
2021/03/26 00:05:14;;;;;;;30.25;17.52;;;5.80;99.90;;;;;;5035464;28;20037;-72
2021/03/26 00:07:40;;;;;;;27.42;17.48;;;5.80;99.90;;;;;;5016161;28;20373;-74
2021/03/26 00:10:13;;;;;;;27.85;15.93;;;5.70;99.90;;;;;;5016390;28;20030;-72
2021/03/26 00:12:39;;;;;;;26.70;15.68;;;5.70;99.90;;;;;;5032869;28;20079;-76
2021/03/26 00:15:07;;;;;;;30.40;16.45;;;5.60;99.90;;;;;;5032122;28;20021;-73
2021/03/26 00:17:32;;;;;;;32.88;15.75;;;5.70;99.90;;;;;;5032152;28;20033;-74
2021/03/26 00:19:58;;;;;;;24.10;16.23;;;5.70;99.90;;;;;;5032251;28;20090;-73
2021/03/26 00:22:24;;;;;;;27.77;16.23;;;5.70;99.90;;;;;;5031105;28;20025;-73
2021/03/26 00:24:49;;;;;;;26.08;16.67;;;5.80;99.90;;;;;;5031464;28;20499;-73
2021/03/26 00:27:15;;;;;;;30.15;17.77;;;5.80;99.90;;;;;;5032161;28;20075;-72
2021/03/26 00:29:41;;;;;;;26.88;16.23;;;5.90;99.90;;;;;;5030501;28;20025;-73
2021/03/26 00:32:07;;;;;;;21.90;14.18;;;5.80;99.90;;;;;;5014504;28;20136;-74
2021/03/26 00:34:33;;;;;;;27.35;14.70;;;5.80;99.90;;;;;;5030470;28;20033;-73
2021/03/26 00:36:58;;;;;;;25.02;15.20;;;5.70;99.90;;;;;;5031614;28;20028;-74
2021/03/26 00:39:24;;;;;;;22.90;16.08;;;5.70;99.90;;;;;;5031862;28;20643;-74
2021/03/26 00:41:50;;;;;;;22.65;15.98;;;5.80;99.90;;;;;;5031944;28;20369;-74
2021/03/26 00:44:15;;;;;;;31.88;17.42;;;5.80;99.90;;;;;;5029732;28;20026;-73
2021/03/26 00:46:42;;;;;;;21.55;15.85;;;5.90;99.90;;;;;;5031756;28;20025;-74
2021/03/26 00:49:08;;;;;;;27.77;16.67;;;5.80;99.90;;;;;;5031621;28;20104;-73
2021/03/26 00:51:35;;;;;;;26.23;16.13;;;5.80;99.90;;;;;;5011866;28;20113;-73
2021/03/26 00:54:01;;;;;;;28.40;15.82;;;5.70;99.90;;;;;;5011126;28;20037;-73
2021/03/26 00:56:27;;;;;;;28.65;16.25;;;5.70;99.90;;;;;;5009247;28;20017;-72
2021/03/26 00:58:52;;;;;;;26.52;15.38;;;5.70;99.90;;;;;;5031173;28;20026;-73
2021/03/26 01:01:18;;;;;;;23.25;14.90;;;5.60;99.90;;;;;;5031560;28;20539;-73
2021/03/26 01:03:44;;;;;;;25.63;15.70;;;5.60;99.90;;;;;;5030899;28;20021;-73
2021/03/26 01:06:10;;;;;;;26.27;14.82;;;5.60;99.90;;;;;;5031572;28;20105;-75
2021/03/26 01:08:36;;;;;;;26.05;15.63;;;5.50;99.90;;;;;;5013617;28;20044;-74
2021/03/26 01:11:09;;;;;;;25.83;15.65;;;5.60;99.90;;;;;;5031534;28;20026;-73
2021/03/26 01:13:35;;;;;;;24.85;14.90;;;5.60;99.90;;;;;;5031649;28;20044;-73
2021/03/26 01:16:01;;;;;;;23.08;14.77;;;5.70;99.90;;;;;;5034635;28;20021;-73
2021/03/26 01:18:34;;;;;;;23.27;15.90;;;5.60;99.90;;;;;;5035452;28;20427;-73
2021/03/26 01:21:01;;;;;;;27.52;15.30;;;5.60;99.90;;;;;;5034668;28;20029;-74
2021/03/26 01:23:28;;;;;;;25.73;15.52;;;5.70;99.90;;;;;;5034842;28;20391;-73
2021/03/26 01:25:54;;;;;;;25.17;15.68;;;5.70;99.90;;;;;;5017029;28;20118;-74
2021/03/26 01:28:25;;;;;;;28.23;15.77;;;5.70;99.90;;;;;;5035497;28;20100;-75
2021/03/26 01:30:51;;;;;;;26.65;15.43;;;5.70;99.90;;;;;;5037432;28;20548;-74
2021/03/26 01:33:19;;;;;;;21.17;13.88;;;5.70;99.90;;;;;;5036294;28;20112;-73
2021/03/26 01:35:44;;;;;;;22.50;15.10;;;5.50;99.90;;;;;;5034423;28;20101;-75
2021/03/26 01:38:10;;;;;;;26.77;16.10;;;5.50;99.90;;;;;;5017576;28;20599;-74
2021/03/26 01:40:42;;;;;;;25.10;15.18;;;5.60;99.90;;;;;;5035180;28;20059;-73
2021/03/26 01:43:12;;;;;;;24.23;15.88;;;5.60;99.90;;;;;;5034682;28;20398;-74
2021/03/26 01:45:38;;;;;;;26.30;14.88;;;5.50;99.90;;;;;;5035437;28;20030;-74
2021/03/26 01:48:06;;;;;;;28.90;16.90;;;5.50;99.90;;;;;;5035291;28;20045;-73
2021/03/26 01:50:33;;;;;;;23.95;15.55;;;5.60;99.90;;;;;;5035091;28;20040;-74
2021/03/26 01:52:59;;;;;;;23.98;15.35;;;5.60;99.90;;;;;;5034201;28;20064;-73
2021/03/26 01:55:33;;;;;;;29.63;17.65;;;5.60;99.90;;;;;;5035043;28;20128;-74
2021/03/26 01:57:59;;;;;;;29.83;16.55;;;5.70;99.90;;;;;;5035470;28;20045;-73
2021/03/26 02:00:40;;;;;;;30.50;17.55;;;5.60;99.90;;;;;;5035106;28;20025;-74
2021/03/26 02:03:36;;;;;;;30.73;16.85;;;5.60;99.90;;;;;;5034577;28;20079;-73
2021/03/26 02:06:22;;;;;;;29.75;16.35;;;5.60;99.90;;;;;;5032885;28;20044;-73
2021/03/26 02:08:50;;;;;;;26.15;15.65;;;5.50;99.90;;;;;;5035008;28;20029;-75
2021/03/26 02:11:22;;;;;;;29.25;17.63;;;5.60;99.90;;;;;;5035981;28;20060;-74
2021/03/26 02:13:49;;;;;;;29.13;17.50;;;5.50;99.90;;;;;;5034190;28;20053;-75
2021/03/26 02:16:16;;;;;;;23.27;15.70;;;5.60;99.90;;;;;;5016745;28;20026;-72
2021/03/26 02:18:42;;;;;;;26.38;15.65;;;5.60;99.90;;;;;;5034495;28;20025;-74
2021/03/26 02:21:32;;;;;;;29.30;17.30;;;5.50;99.90;;;;;;5034157;28;20020;-73
2021/03/26 02:24:03;;;;;;;32.00;17.58;;;5.50;99.90;;;;;;5023639;28;20034;-75
2021/03/26 02:26:42;;;;;;;26.65;17.30;;;5.50;99.90;;;;;;5016307;28;20468;-74
2021/03/26 02:29:27;;;;;;;26.23;15.93;;;5.40;99.90;;;;;;5034417;28;20058;-74
2021/03/26 02:31:56;;;;;;;26.95;15.52;;;5.40;99.90;;;;;;5016495;28;20391;-74
2021/03/26 02:34:23;;;;;;;24.65;15.43;;;5.30;99.90;;;;;;5033126;28;20033;-77
2021/03/26 02:36:53;;;;;;;21.92;14.77;;;5.20;99.90;;;;;;5033132;28;20546;-74
2021/03/26 02:39:46;;;;;;;26.70;16.05;;;5.00;99.90;;;;;;5034041;28;20088;-73
2021/03/26 02:42:25;;;;;;;30.60;16.50;;;5.00;99.90;;;;;;5025976;28;20037;-75
2021/03/26 02:45:08;;;;;;;26.38;16.92;;;5.00;99.90;;;;;;5033262;28;20026;-73
2021/03/26 02:47:40;;;;;;;;;;;5.00;99.90;;;;;;5034624;28;20034;-72
2021/03/26 02:50:46;;;;;;;28.25;16.55;;;4.90;99.90;;;;;;5037541;28;19933;-74
2021/03/26 02:53:22;;;;;;;28.45;17.38;;;4.90;99.90;;;;;;5007902;28;20602;-73
2021/03/26 02:56:19;;;;;;;35.13;17.95;;;4.90;99.90;;;;;;5033849;28;20536;-74
2021/03/26 02:58:51;;;;;;;27.85;17.63;;;4.90;99.90;;;;;;5037270;28;20025;-74
2021/03/26 03:01:34;;;;;;;33.92;17.33;;;4.90;99.90;;;;;;5038991;28;20112;-73
2021/03/26 03:04:09;;;;;;;27.58;17.70;;;4.80;99.90;;;;;;5037833;28;20037;-74
2021/03/26 03:06:42;;;;;;;30.45;18.50;;;4.70;99.90;;;;;;5034629;28;20100;-73
2021/03/26 03:09:11;;;;;;;25.98;17.02;;;4.60;99.90;;;;;;5034201;28;20018;-73
2021/03/26 03:11:58;;;;;;;30.17;17.48;;;4.50;99.90;;;;;;5033534;28;20022;-74
2021/03/26 03:14:56;;;;;;;35.50;19.20;;;4.50;99.90;;;;;;5038189;28;20045;-72
2021/03/26 03:17:28;;;;;;;30.63;19.88;;;4.40;99.90;;;;;;5043989;28;20072;-74
2021/03/26 03:20:07;;;;;;;41.58;19.73;;;4.40;99.90;;;;;;5035952;28;20117;-72
2021/03/26 03:22:41;;;;;;;29.60;18.20;;;4.30;99.90;;;;;;5033302;28;20590;-71
2021/03/26 03:25:20;;;;;;;33.58;19.48;;;4.30;99.90;;;;;;5033197;28;20025;-73
2021/03/26 03:28:00;;;;;;;40.13;18.95;;;4.30;99.90;;;;;;5033291;28;20025;-73
2021/03/26 03:30:45;;;;;;;30.98;18.92;;;4.10;99.90;;;;;;5015508;28;20032;-71
2021/03/26 03:33:20;;;;;;;31.45;18.73;;;4.00;99.90;;;;;;5032339;28;20033;-73
2021/03/26 03:35:56;;;;;;;32.65;18.15;;;3.90;99.90;;;;;;5032471;28;20471;-72
2021/03/26 03:38:34;;;;;;;33.40;18.13;;;3.80;99.90;;;;;;5033435;28;20486;-74
2021/03/26 03:41:07;;;;;;;34.80;18.30;;;3.80;99.90;;;;;;5016369;28;20018;-73
2021/03/26 03:43:36;;;;;;;35.53;19.20;;;3.90;99.90;;;;;;5032668;28;20079;-74
2021/03/26 03:46:26;;;;;;;29.85;18.90;;;3.90;99.90;;;;;;5034062;28;20084;-73
2021/03/26 03:49:34;;;;;;;34.25;19.25;;;3.90;99.90;;;;;;5033634;28;20392;-74
2021/03/26 03:52:23;;;;;;;29.40;18.52;;;3.90;99.90;;;;;;5032814;28;20030;-72
2021/03/26 03:55:02;;;;;;;30.60;17.10;;;3.80;99.90;;;;;;5031905;28;20029;-73
2021/03/26 03:57:32;;;;;;;31.05;19.15;;;3.80;99.90;;;;;;5032487;28;20025;-75
2021/03/26 04:00:08;;;;;;;29.38;18.92;;;3.80;99.90;;;;;;5014536;28;20075;-73
2021/03/26 04:02:36;;;;;;;32.97;20.02;;;3.90;99.90;;;;;;5032460;28;20040;-72
2021/03/26 04:05:23;;;;;;;33.25;18.63;;;3.80;99.90;;;;;;5032087;28;20029;-74
2021/03/26 04:07:56;;;;;;;39.10;20.85;;;3.70;99.90;;;;;;5032328;28;20108;-75
2021/03/26 04:10:23;;;;;;;35.90;20.20;;;3.80;99.90;;;;;;5032375;28;20151;-73
2021/03/26 04:12:53;;;;;;;31.75;18.55;;;3.80;99.90;;;;;;5031786;28;20040;-73
2021/03/26 04:15:35;;;;;;;34.92;19.30;;;3.80;99.90;;;;;;5032348;28;20184;-74
2021/03/26 04:18:27;;;;;;;32.88;18.98;;;3.70;99.90;;;;;;5032313;28;20021;-73
2021/03/26 04:21:02;;;;;;;29.50;18.73;;;3.80;99.90;;;;;;5031913;28;20566;-74
2021/03/26 04:23:38;;;;;;;30.95;19.00;;;3.70;99.90;;;;;;5031706;28;20045;-73
2021/03/26 04:26:08;;;;;;;32.33;18.40;;;3.80;99.90;;;;;;5032172;28;20022;-73
2021/03/26 04:28:38;;;;;;;36.25;20.40;;;3.90;99.90;;;;;;5032262;28;20047;-74
2021/03/26 04:31:09;;;;;;;34.67;20.75;;;4.00;99.90;;;;;;5032123;28;20387;-72
2021/03/26 04:33:35;;;;;;;27.30;15.48;;;4.00;99.90;;;;;;5031272;28;20030;-72
2021/03/26 04:36:05;;;;;;;38.42;21.83;;;4.10;99.90;;;;;;5031229;28;20487;-73
2021/03/26 04:38:57;;;;;;;35.78;22.27;;;4.00;99.90;;;;;;5031863;28;20100;-73
2021/03/26 04:42:05;;;;;;;32.97;20.90;;;4.10;99.90;;;;;;5031851;28;20033;-72
2021/03/26 04:44:40;;;;;;;34.13;21.55;;;4.10;99.90;;;;;;5021770;28;20017;-72
2021/03/26 04:47:25;;;;;;;33.95;20.52;;;4.10;99.90;;;;;;5048195;28;20092;-73
2021/03/26 04:49:59;;;;;;;36.65;20.63;;;4.20;99.90;;;;;;5047784;28;20045;-72
2021/03/26 04:52:33;;;;;;;31.40;19.10;;;4.40;99.90;;;;;;5046916;28;20052;-73
2021/03/26 04:55:02;;;;;;;29.02;17.20;;;4.30;99.90;;;;;;5040774;28;20029;-73
2021/03/26 04:57:35;;;;;;;31.90;16.83;;;4.30;99.90;;;;;;5032774;28;20539;-73
2021/03/26 05:00:09;;;;;;;26.98;16.58;;;4.20;99.90;;;;;;5031723;28;20017;-74
2021/03/26 05:02:41;;;;;;;30.05;16.83;;;4.20;99.90;;;;;;5013971;28;20032;-74
2021/03/26 05:05:07;;;;;;;24.00;17.02;;;4.20;99.90;;;;;;5013562;28;20078;-73
2021/03/26 05:07:37;;;;;;;28.65;17.33;;;4.20;99.90;;;;;;5031771;28;20034;-73
2021/03/26 05:10:08;;;;;;;29.58;18.33;;;4.20;99.90;;;;;;5032212;28;20590;-73
2021/03/26 05:12:40;;;;;;;30.33;17.48;;;4.40;99.90;;;;;;5033468;28;20033;-72
2021/03/26 05:15:12;;;;;;;32.15;19.80;;;4.40;99.90;;;;;;5019521;28;20383;-71
2021/03/26 05:18:03;;;;;;;35.20;20.05;;;4.40;99.90;;;;;;5032686;28;20100;-71
2021/03/26 05:20:44;;;;;;;34.13;20.17;;;4.40;99.90;;;;;;5037262;28;20036;-71
2021/03/26 05:23:14;;;;;;;38.03;21.65;;;4.50;99.90;;;;;;5055447;28;20029;-72
2021/03/26 05:25:44;;;;;;;38.72;21.85;;;4.50;99.90;;;;;;5049850;28;20490;-72
2021/03/26 05:28:25;;;;;;;38.10;21.40;;;4.40;99.90;;;;;;5051604;28;20025;-70
2021/03/26 05:30:51;;;;;;;31.77;20.13;;;4.30;99.90;;;;;;5030677;28;20033;-71
2021/03/26 05:33:48;;;;;;;37.40;20.85;;;4.10;99.90;;;;;;5029306;28;20025;-71
2021/03/26 05:36:36;;;;;;;34.22;20.27;;;4.10;99.90;;;;;;5029306;28;20690;-70
2021/03/26 05:39:17;;;;;;;32.95;20.55;;;4.10;99.90;;;;;;5029748;28;20072;-71
2021/03/26 05:42:04;;;;;;;35.35;21.45;;;4.20;99.90;;;;;;5042437;28;20100;-72
2021/03/26 05:44:54;;;;;;;36.47;22.00;;;4.20;99.90;;;;;;5024607;28;20487;-72
2021/03/26 05:47:31;;;;;;;34.55;20.27;;;4.20;99.90;;;;;;5042918;28;20049;-73
2021/03/26 05:50:26;;;;;;;33.65;20.42;;;4.20;99.90;;;;;;5026989;28;20041;-70
2021/03/26 05:53:14;;;;;;;34.63;19.52;;;4.20;99.90;;;;;;5029194;28;20399;-72
2021/03/26 05:55:56;;;;;;;34.80;19.52;;;4.10;99.90;;;;;;4990651;28;20067;-70
2021/03/26 05:58:49;;;;;;;32.58;19.27;;;4.10;99.90;;;;;;5029332;28;20025;-70
2021/03/26 06:01:36;;;;;;;31.60;17.80;;;4.10;99.90;;;;;;5014994;28;20022;-69
2021/03/26 06:04:44;;;;;;;34.38;18.13;;;4.10;99.90;;;;;;5032971;28;20361;-70
2021/03/26 06:07:09;;;;;;;29.48;18.75;;;4.10;99.90;;;;;;5033913;28;20048;-70
2021/03/26 06:09:57;;;;;;;27.35;17.60;;;4.20;99.90;;;;;;5048544;28;20021;-71
2021/03/26 06:12:52;;;;;;;34.92;19.10;;;4.20;99.90;;;;;;5065468;28;20446;-74
2021/03/26 06:15:18;;;;;;;30.05;17.83;;;4.20;99.90;;;;;;5049410;28;20028;-72
2021/03/26 06:17:47;;;;;;;30.50;18.55;;;4.20;99.90;;;;;;5044122;28;20028;-73
2021/03/26 06:20:34;;;;;;;38.42;18.85;;;4.30;99.90;;;;;;5039727;28;20030;-72
2021/03/26 06:23:38;;;;;;;27.42;18.50;;;4.30;99.90;;;;;;5016705;28;20421;-73
2021/03/26 06:26:25;;;;;;;32.90;16.27;;;4.40;99.90;;;;;;5014341;28;20029;-72
2021/03/26 06:29:19;;;;;;;31.73;17.98;;;4.60;99.90;;;;;;5014623;28;20492;-72
2021/03/26 06:32:22;;;;;;;32.97;18.35;;;4.60;99.90;;;;;;5021503;28;20109;-74
2021/03/26 06:35:07;;;;;;;31.60;18.92;;;4.70;99.90;;;;;;5018074;28;20112;-73
2021/03/26 06:37:33;;;;;;;34.58;19.73;;;4.90;99.90;;;;;;5044709;28;20029;-75
2021/03/26 06:40:05;;;;;;;34.42;19.63;;;5.00;99.90;;;;;;5025734;28;20025;-72
2021/03/26 06:42:52;;;;;;;29.27;18.70;;;5.00;99.90;;;;;;5043327;28;20057;-73
2021/03/26 06:45:49;;;;;;;23.17;16.30;;;5.00;99.90;;;;;;5030726;28;20116;-75
2021/03/26 06:48:38;;;;;;;28.20;16.48;;;5.00;99.90;;;;;;5028767;28;20025;-75
2021/03/26 06:51:32;;;;;;;28.77;16.45;;;5.10;99.90;;;;;;5030831;28;20036;-71
2021/03/26 06:54:28;;;;;;;30.95;16.58;;;5.20;99.90;;;;;;5048437;28;20021;-73
2021/03/26 06:57:12;;;;;;;29.67;15.23;;;5.30;99.90;;;;;;5050402;28;20623;-74
2021/03/26 06:59:42;;;;;;;27.77;15.70;;;5.40;99.90;;;;;;5047080;28;20399;-73
2021/03/26 07:02:45;;;;;;;30.67;15.85;;;5.50;99.90;;;;;;5021186;28;20071;-73
2021/03/26 07:05:20;;;;;;;26.17;16.02;;;5.60;99.90;;;;;;5035412;28;20033;-71
2021/03/26 07:07:55;;;;;;;25.90;15.75;;;5.70;99.90;;;;;;5034780;28;20026;-71
2021/03/26 07:10:24;;;;;;;27.77;16.60;;;5.70;99.90;;;;;;5047448;28;20044;-71
2021/03/26 07:13:08;;;;;;;26.15;15.43;;;5.80;99.90;;;;;;5049818;28;20082;-72
2021/03/26 07:15:49;;;;;;;31.85;16.38;;;5.90;99.90;;;;;;5026547;28;20088;-71
2021/03/26 07:18:26;;;;;;;23.45;15.77;;;6.20;99.90;;;;;;5023642;28;20519;-71
2021/03/26 07:21:04;;;;;;;28.10;15.95;;;6.50;99.90;;;;;;5017081;28;20037;-73
2021/03/26 07:23:46;;;;;;;28.55;15.43;;;6.40;99.90;;;;;;5013678;28;20072;-72
2021/03/26 07:26:27;;;;;;;26.65;15.15;;;6.50;99.90;;;;;;5033261;28;20505;-71
2021/03/26 07:32:18;;;;;;;21.90;15.05;;;6.80;99.90;;;;;;5049541;28;20040;-73
2021/03/26 07:34:52;;;;;;;25.77;16.42;;;6.70;99.90;;;;;;5043448;28;20048;-73
2021/03/26 07:37:42;;;;;;;21.13;13.57;;;6.80;99.90;;;;;;5034492;28;20048;-72
2021/03/26 07:40:36;;;;;;;24.17;15.80;;;7.00;99.90;;;;;;5031162;28;20046;-75
2021/03/26 07:43:38;;;;;;;30.50;15.80;;;7.20;99.90;;;;;;5034651;28;20126;-73
2021/03/26 07:46:37;;;;;;;26.80;16.88;;;7.40;99.90;;;;;;5042565;28;20029;-74
2021/03/26 07:49:15;;;;;;;22.83;15.27;;;7.40;99.90;;;;;;5054578;28;20391;-72
2021/03/26 07:51:42;;;;;;;28.02;15.00;;;7.50;99.90;;;;;;5036800;28;20029;-72
2021/03/26 07:54:24;;;;;;;25.90;15.60;;;7.70;99.90;;;;;;5052171;28;20021;-73
2021/03/26 07:56:50;;;;;;;20.70;14.95;;;7.80;99.90;;;;;;5033057;28;20104;-72
2021/03/26 08:00:01;;;;;;;26.95;14.80;;;7.90;99.90;;;;;;5048624;28;20685;-72
2021/03/26 08:02:55;;;;;;;27.33;16.05;;;8.00;99.90;;;;;;5032216;28;20124;-73
2021/03/26 08:05:33;;;;;;;23.55;15.73;;;8.20;99.90;;;;;;5027238;28;20455;-70
2021/03/26 08:08:05;;;;;;;23.02;15.40;;;8.60;99.90;;;;;;5032318;28;20556;-72
2021/03/26 08:10:36;;;;;;;27.73;14.98;;;9.00;99.90;;;;;;5031324;28;20036;-73
2021/03/26 08:13:21;;;;;;;25.92;13.50;;;9.10;99.90;;;;;;5021354;28;20026;-73
2021/03/26 08:16:14;;;;;;;24.92;13.50;;;9.20;99.90;;;;;;5003017;28;20045;-73
2021/03/26 08:19:16;;;;;;;22.58;13.30;;;9.50;99.90;;;;;;5003857;28;21168;-73
2021/03/26 08:22:02;;;;;;;19.08;13.13;;;9.60;99.90;;;;;;5027870;28;20065;-73
2021/03/26 08:25:13;;;;;;;22.92;13.18;;;9.80;99.90;;;;;;5023144;28;20080;-73
2021/03/26 08:28:10;;;;;;;19.98;12.73;;;10.40;99.90;;;;;;5023980;28;20025;-72
2021/03/26 08:30:44;;;;;;;18.52;12.90;;;10.70;99.90;;;;;;5021892;28;20500;-75
2021/03/26 08:33:44;;;;;;;17.35;11.85;;;11.60;99.90;;;;;;5004398;28;20056;-72
2021/03/26 08:36:30;;;;;;;20.52;12.75;;;11.10;99.90;;;;;;5022165;28;20492;-73
2021/03/26 08:39:16;;;;;;;23.08;11.52;;;11.10;99.90;;;;;;5007069;28;20018;-74
2021/03/26 08:41:51;;;;;;;17.58;11.65;;;11.20;99.90;;;;;;5005856;28;20038;-74
2021/03/26 08:44:20;;;;;;;17.20;11.20;;;12.70;99.90;;;;;;5005437;28;20025;-75
2021/03/26 08:46:52;;;;;;;18.60;11.00;;;13.00;99.90;;;;;;5025075;28;20044;-73
2021/03/26 08:49:35;;;;;;;15.90;11.07;;;13.50;99.90;;;;;;5013233;28;20044;-75
2021/03/26 08:52:05;;;;;;;14.15;11.07;;;12.70;99.90;;;;;;5044145;28;20052;-74
2021/03/26 08:54:59;;;;;;;13.95;10.25;;;12.60;99.90;;;;;;5045117;28;20025;-73
2021/03/26 08:57:52;;;;;;;14.65;11.18;;;13.60;99.90;;;;;;5019414;28;20045;-72
2021/03/26 09:00:39;;;;;;;15.30;11.05;;;14.20;99.90;;;;;;5039893;28;20077;-74
2021/03/26 09:03:21;;;;;;;16.25;10.75;;;13.10;99.90;;;;;;5041595;28;20025;-74
2021/03/26 09:06:23;;;;;;;13.85;10.40;;;13.80;99.90;;;;;;5040255;28;20040;-72
2021/03/26 09:08:58;;;;;;;;;;;14.50;99.90;;;;;;5065278;28;20028;-75
2021/03/26 09:12:17;;;;;;;19.23;11.75;;;15.50;99.30;;;;;;5043801;28;19912;-73
2021/03/26 09:15:19;;;;;;;16.35;10.93;;;14.60;99.90;;;;;;5058557;28;20120;-75
2021/03/26 09:17:56;;;;;;;;;;;14.70;99.90;;;;;;5046980;28;20021;-74
2021/03/26 09:20:50;;;;;;;27.67;10.60;;;15.70;99.00;;;;;;5049911;28;19916;-74
2021/03/26 09:23:35;;;;;;;20.73;12.10;;;15.20;98.40;;;;;;5027093;28;20081;-76
2021/03/26 09:26:35;;;;;;;19.33;11.88;;;14.80;99.80;;;;;;5028389;28;20044;-75
2021/03/26 09:29:14;;;;;;;13.77;10.82;;;15.20;99.70;;;;;;5022834;28;20446;-75
2021/03/26 09:32:25;;;;;;;15.32;10.63;;;15.90;97.40;;;;;;5038437;28;20029;-75
2021/03/26 09:35:36;;;;;;;15.65;11.68;;;16.30;97.00;;;;;;5036197;28;20117;-75
2021/03/26 09:38:31;;;;;;;13.45;9.38;;;16.20;94.90;;;;;;4999592;28;20037;-75
2021/03/26 09:41:33;;;;;;;14.00;10.05;;;15.40;97.70;;;;;;5046024;28;20104;-71
2021/03/26 09:44:04;;;;;;;14.38;10.35;;;16.50;97.10;;;;;;5045523;28;20037;-72
2021/03/26 09:46:47;;;;;;;12.93;10.75;;;18.30;94.40;;;;;;5048730;28;20052;-72
2021/03/26 09:49:40;;;;;;;13.23;9.82;;;19.00;90.20;;;;;;5029287;28;20112;-73
2021/03/26 09:52:43;;;;;;;13.00;10.38;;;19.70;89.60;;;;;;5029350;28;20040;-75
2021/03/26 09:55:27;;;;;;;21.25;9.77;;;20.10;86.40;;;;;;5034307;28;20052;-72
2021/03/26 09:58:21;;;;;;;11.23;9.52;;;19.20;80.20;;;;;;5035267;28;20100;-73
2021/03/26 10:00:52;;;;;;;14.30;11.40;;;18.50;82.80;;;;;;5034883;28;20025;-72
2021/03/26 10:03:39;;;;;;;;;;;20.00;83.20;;;;;;5016601;28;20116;-72
2021/03/26 10:06:29;;;;;;;12.07;9.93;;;20.30;76.60;;;;;;5048397;28;19909;-70
2021/03/26 10:09:21;;;;;;;16.63;9.25;;;20.30;76.80;;;;;;5055518;28;20029;-71
2021/03/26 10:11:58;;;;;;;15.00;9.93;;;21.30;75.20;;;;;;5056451;28;20021;-71
2021/03/26 10:14:29;;;;;;;16.95;9.57;;;20.30;72.20;;;;;;5055402;28;20032;-71
2021/03/26 10:17:10;;;;;;;12.27;9.30;;;20.00;74.40;;;;;;5038191;28;20043;-72
2021/03/26 10:19:40;;;;;;;12.67;9.23;;;20.10;75.90;;;;;;5046093;28;20541;-72
2021/03/26 10:22:24;;;;;;;12.07;8.98;;;21.10;73.30;;;;;;5016989;28;20495;-70
2021/03/26 10:24:58;;;;;;;17.52;10.18;;;21.80;70.90;;;;;;5033955;28;20025;-70
2021/03/26 10:27:31;;;;;;;11.52;9.43;;;20.30;72.30;;;;;;5016722;28;20483;-72
2021/03/26 10:30:07;;;;;;;13.15;10.07;;;19.10;77.80;;;;;;5034192;28;20087;-70
2021/03/26 10:32:34;;;;;;;13.20;10.40;;;20.00;74.00;;;;;;5034201;28;20041;-73
2021/03/26 10:35:11;;;;;;;11.15;8.75;;;19.80;74.20;;;;;;5034457;28;20025;-72
2021/03/26 10:37:54;;;;;;;16.13;9.77;;;20.60;74.10;;;;;;5035400;28;20030;-72
2021/03/26 10:40:42;;;;;;;12.38;9.27;;;21.70;71.00;;;;;;5034190;28;20067;-71
2021/03/26 10:43:24;;;;;;;14.23;9.43;;;22.30;67.40;;;;;;5033490;28;20043;-72
2021/03/26 10:46:12;;;;;;;13.23;9.23;;;23.20;65.10;;;;;;5033510;28;20022;-72
2021/03/26 10:48:59;;;;;;;12.07;8.93;;;23.60;64.10;;;;;;5016355;28;20033;-72
2021/03/26 10:51:28;;;;;;;11.60;8.00;;;23.00;64.00;;;;;;5016467;28;20021;-72
2021/03/26 10:54:21;;;;;;;10.63;8.52;;;22.00;66.60;;;;;;5033170;28;20018;-71
2021/03/26 10:56:49;;;;;;;16.05;8.60;;;22.00;64.00;;;;;;5034337;28;20057;-71
2021/03/26 10:59:36;;;;;;;10.25;8.07;;;22.40;63.00;;;;;;5016273;28;20025;-71
2021/03/26 11:02:44;;;;;;;12.07;7.45;;;22.00;61.70;;;;;;5034580;28;20066;-72
2021/03/26 11:05:31;;;;;;;8.45;6.70;;;22.80;62.00;;;;;;5016059;28;20040;-71
2021/03/26 11:07:57;;;;;;;13.40;7.82;;;24.50;58.10;;;;;;5064096;28;20522;-71
2021/03/26 11:10:29;;;;;;;10.98;7.47;;;23.00;59.20;;;;;;5058914;28;20037;-72
2021/03/26 11:13:02;;;;;;;9.32;7.78;;;22.90;59.70;;;;;;5053378;28;20530;-72
2021/03/26 11:15:35;;;;;;;8.88;6.63;;;23.30;57.60;;;;;;5053466;28;20075;-72
2021/03/26 11:18:17;;;;;;;12.38;7.22;;;23.60;58.40;;;;;;5044076;28;20045;-72
2021/03/26 11:20:43;;;;;;;;;;;24.90;56.90;;;;;;5034382;28;20310;-72
2021/03/26 11:23:32;;;;;;;12.60;8.23;;;24.20;54.30;;;;;;5015021;28;19912;-72
2021/03/26 11:25:57;;;;;;;13.05;7.05;;;23.90;56.00;;;;;;5015738;28;20033;-72
2021/03/26 11:28:31;;;;;;;10.70;6.95;;;22.80;56.40;;;;;;5033663;28;20083;-72
2021/03/26 11:30:58;;;;;;;9.93;6.90;;;22.10;60.60;;;;;;5033344;28;20063;-71
2021/03/26 11:33:50;;;;;;;9.05;7.63;;;23.70;57.10;;;;;;5014534;28;20484;-72
2021/03/26 11:36:37;;;;;;;9.23;6.53;;;25.10;55.00;;;;;;5033136;28;20109;-72
2021/03/26 11:39:25;;;;;;;10.02;6.22;;;25.80;52.70;;;;;;5033506;28;20365;-71
2021/03/26 11:42:03;;;;;;;14.30;5.90;;;25.60;52.00;;;;;;5022942;28;20042;-73
2021/03/26 11:44:32;;;;;;;7.95;5.70;;;26.50;49.70;;;;;;5031917;28;20029;-71
2021/03/26 11:47:34;;;;;;;11.45;6.47;;;26.60;49.00;;;;;;5033202;28;20479;-71
2021/03/26 11:50:30;;;;;;;6.77;5.50;;;25.00;51.30;;;;;;5029041;28;20037;-71
2021/03/26 11:53:07;;;;;;;11.35;6.22;;;24.20;53.20;;;;;;5032420;28;20288;-70
2021/03/26 11:55:37;;;;;;;8.95;6.85;;;26.30;50.60;;;;;;5033440;28;20029;-71
2021/03/26 11:58:14;;;;;;;8.00;5.72;;;26.90;47.50;;;;;;5032637;28;20025;-71
2021/03/26 12:00:49;;;;;;;6.82;5.78;;;27.00;47.60;;;;;;5029464;28;20025;-71
2021/03/26 12:03:30;;;;;;;8.20;6.35;;;23.80;50.90;;;;;;5024537;28;20365;-72
2021/03/26 12:06:17;;;;;;;6.50;5.03;;;22.90;53.00;;;;;;5023680;28;20032;-72
2021/03/26 12:09:00;;;;;;;6.70;5.57;;;22.40;56.40;;;;;;5013618;28;20017;-76
2021/03/26 12:11:53;;;;;;;7.05;5.50;;;23.30;54.90;;;;;;5044188;28;20021;-73
2021/03/26 12:14:35;;;;;;;8.85;5.78;;;24.60;52.20;;;;;;5065110;28;20032;-73
2021/03/26 12:17:26;;;;;;;9.38;5.63;;;25.20;48.70;;;;;;5047149;28;20525;-73
2021/03/26 12:20:07;;;;;;;7.63;3.97;;;25.70;50.10;;;;;;5034012;28;20041;-73
2021/03/26 12:23:03;;;;;;;7.32;4.85;;;25.90;50.50;;;;;;5042065;28;20040;-74
2021/03/26 12:25:50;;;;;;;7.75;4.63;;;24.70;51.40;;;;;;5043458;28;20032;-74
2021/03/26 12:28:43;;;;;;;9.40;4.43;;;25.30;50.50;;;;;;5041898;28;20029;-72
2021/03/26 12:31:35;;;;;;;6.88;4.40;;;25.00;48.70;;;;;;5045205;28;20043;-71
2021/03/26 12:34:17;;;;;;;8.93;4.38;;;23.90;51.70;;;;;;5045794;28;20040;-72
2021/03/26 12:36:57;;;;;;;7.03;5.40;;;23.60;52.70;;;;;;5062367;28;20025;-73
2021/03/26 12:39:40;;;;;;;6.05;3.85;;;24.30;50.50;;;;;;5060151;28;20023;-72
2021/03/26 12:42:16;;;;;;;5.32;4.57;;;24.40;51.40;;;;;;5060350;28;20021;-71
2021/03/26 12:44:55;;;;;;;10.00;4.75;;;23.70;50.50;;;;;;5061140;28;20081;-72
2021/03/26 12:47:24;;;;;;;7.32;5.00;;;23.60;52.50;;;;;;5063647;28;20033;-73
2021/03/26 12:49:56;;;;;;;6.85;4.43;;;24.40;50.30;;;;;;5054732;28;20021;-72
2021/03/26 12:52:39;;;;;;;9.52;4.32;;;24.40;48.80;;;;;;5053771;28;20112;-71
2021/03/26 12:55:05;;;;;;;6.13;4.40;;;23.00;50.70;;;;;;5051720;28;20031;-72
2021/03/26 12:57:50;;;;;;;9.38;4.63;;;23.20;51.70;;;;;;5035857;28;20488;-71
2021/03/26 13:00:34;;;;;;;6.47;4.63;;;23.80;50.70;;;;;;5041816;28;20028;-72
2021/03/26 13:03:10;;;;;;;6.93;4.97;;;21.90;53.20;;;;;;5026444;28;20021;-71
2021/03/26 13:05:40;;;;;;;5.47;4.80;;;21.20;54.30;;;;;;5032380;28;20029;-72
2021/03/26 13:08:19;;;;;;;7.03;5.05;;;20.70;56.10;;;;;;5035068;28;20029;-73
2021/03/26 13:11:15;;;;;;;6.13;4.63;;;20.70;55.10;;;;;;5024637;28;20018;-72
2021/03/26 13:13:48;;;;;;;8.48;4.85;;;21.20;54.90;;;;;;5039716;28;20030;-72
2021/03/26 13:16:16;;;;;;;;;;;21.80;53.70;;;;;;5040718;28;20026;-74
2021/03/26 13:19:01;;;;;;;5.50;3.97;;;22.50;52.00;;;;;;5021550;28;19909;-71
2021/03/26 13:21:33;;;;;;;13.63;3.97;;;23.10;52.90;;;;;;5046041;28;20507;-72
2021/03/26 13:24:07;;;;;;;;;;;23.20;49.90;;;;;;5058453;28;20519;-74
2021/03/26 13:26:36;;;;;;;5.57;3.63;;;22.10;51.00;;;;;;5040370;28;19916;-72
2021/03/26 13:29:08;;;;;;;3.78;2.78;;;21.90;53.50;;;;;;5037951;28;20036;-73
2021/03/26 13:31:44;;;;;;;10.65;3.95;;;21.30;50.90;;;;;;5036156;28;20392;-71
2021/03/26 13:34:23;;;;;;;7.60;4.00;;;20.90;54.20;;;;;;5029738;28;20018;-73
2021/03/26 13:37:10;;;;;;;6.35;3.90;;;20.20;56.00;;;;;;5033325;28;20026;-73
2021/03/26 13:39:40;;;;;;;9.65;3.70;;;20.90;56.70;;;;;;5015421;28;20029;-73
2021/03/26 13:42:27;;;;;;;9.23;3.60;;;20.50;55.50;;;;;;5035368;28;20026;-73